Time;durP1;ratioP1;P1;durP2;ratioP2;P2;SDS_P1;SDS_P2;PMS_P1;PMS_P2;Temp;Humidity;BMP_temperature;BMP_pressure;BME280_temperature;BME280_humidity;BME280_pressure;Samples;Min_cycle;Max_cycle;Signal;HPM_P1;HPM_P2
2021/05/14 00:00:40;;;;;;;5.82;2.33;;;359.10;2329.60;;;;;;5076049;28;20035;-87
2021/05/14 00:03:40;;;;;;;5.28;2.00;;;358.90;2329.60;;;;;;5072642;28;20048;-85
2021/05/14 00:06:25;;;;;;;4.82;1.73;;;359.00;2329.60;;;;;;5074252;28;20085;-84
2021/05/14 00:09:02;;;;;;;5.13;2.05;;;358.90;2329.60;;;;;;5072720;28;20028;-87
2021/05/14 00:11:50;;;;;;;4.57;1.65;;;358.80;2329.60;;;;;;5072773;28;20385;-86
2021/05/14 00:14:28;;;;;;;4.30;1.55;;;358.80;2329.60;;;;;;5072744;28;20055;-87
2021/05/14 00:16:57;;;;;;;7.90;1.65;;;358.80;2329.60;;;;;;5072742;28;20024;-87
2021/05/14 00:19:43;;;;;;;5.43;1.90;;;358.80;2329.60;;;;;;5072743;28;20111;-86
2021/05/14 00:22:29;;;;;;;5.63;2.20;;;358.90;2329.60;;;;;;5059138;28;20037;-87
2021/05/14 00:28:14;;;;;;;7.32;2.53;;;358.90;2329.60;;;;;;5051152;28;20029;-87
2021/05/14 00:30:40;;;;;;;7.30;2.45;;;358.90;2329.60;;;;;;5072464;28;20055;-87
2021/05/14 00:33:14;;;;;;;6.05;2.60;;;358.80;2329.60;;;;;;5074182;28;20047;-88
2021/05/14 00:35:43;;;;;;;5.03;2.75;;;358.80;2329.60;;;;;;5056509;28;20072;-87
2021/05/14 00:38:51;;;;;;;;;;;;;;;;;;;;;
2021/05/14 00:41:25;;;;;;;6.97;2.25;;;333.70;2329.60;;;;;;5088272;28;20060;-85
2021/05/14 00:47:07;;;;;;;5.82;2.70;;;358.40;2329.60;;;;;;5080476;28;20063;-86
2021/05/14 00:49:53;;;;;;;7.45;2.85;;;358.40;2329.60;;;;;;5073593;28;20028;-85
2021/05/14 00:52:54;;;;;;;8.60;3.50;;;358.50;2329.60;;;;;;5076852;28;20024;-87
2021/05/14 00:56:25;;;;;;;5.65;3.00;;;358.60;2329.60;;;;;;5090754;28;20374;-86
2021/05/14 00:58:51;;;;;;;6.32;2.88;;;358.60;2329.60;;;;;;5001754;28;20045;-87
2021/05/14 01:01:18;;;;;;;6.38;2.95;;;358.60;2329.60;;;;;;5000407;28;20535;-88
2021/05/14 01:03:50;;;;;;;5.60;2.10;;;358.60;2329.60;;;;;;5056966;28;20401;-86
2021/05/14 01:06:32;;;;;;;7.95;3.08;;;358.60;2329.60;;;;;;5060930;28;20040;-87
2021/05/14 01:09:00;;;;;;;6.18;2.38;;;358.70;2329.60;;;;;;5060594;28;20024;-88
2021/05/14 01:11:42;;;;;;;7.65;3.15;;;358.80;2329.60;;;;;;5078332;28;20032;-86
2021/05/14 01:18:14;;;;;;;5.80;2.70;;;358.60;2329.60;;;;;;5075039;28;20044;-90
2021/05/14 01:20:46;;;;;;;5.25;2.30;;;358.70;2329.60;;;;;;5059733;28;20037;-89
2021/05/14 01:23:19;;;;;;;5.57;2.63;;;358.90;2329.60;;;;;;5076618;28;20032;-90
2021/05/14 01:26:01;;;;;;;5.60;2.42;;;358.90;2329.60;;;;;;5060725;28;20029;-90
2021/05/14 01:28:27;;;;;;;4.13;2.20;;;358.60;2329.60;;;;;;5076757;28;20029;-87
2021/05/14 01:31:13;;;;;;;5.78;2.30;;;358.80;2329.60;;;;;;5078018;28;20043;-87
2021/05/14 01:34:00;;;;;;;7.65;2.40;;;358.80;2329.60;;;;;;5077648;28;20158;-88
2021/05/14 01:36:29;;;;;;;5.53;2.58;;;358.90;2329.60;;;;;;5076588;28;20036;-87
2021/05/14 01:39:07;;;;;;;7.07;3.22;;;358.80;2329.60;;;;;;5076544;28;20025;-86
2021/05/14 01:41:35;;;;;;;6.25;2.20;;;358.80;2329.60;;;;;;5075814;28;20077;-88
2021/05/14 01:44:22;;;;;;;9.23;2.45;;;358.80;2329.60;;;;;;5075262;28;20028;-87
2021/05/14 01:46:50;;;;;;;4.57;2.00;;;358.80;2329.60;;;;;;5080905;28;20024;-86
2021/05/14 01:49:16;;;;;;;4.75;2.10;;;358.80;2329.60;;;;;;5082757;28;20024;-85
2021/05/14 01:51:45;;;;;;;9.15;2.45;;;358.90;2329.60;;;;;;5075938;28;20027;-87
2021/05/14 01:54:44;;;;;;;4.47;2.13;;;358.90;2329.60;;;;;;5075146;28;20028;-85
2021/05/14 01:57:22;;;;;;;6.28;3.55;;;358.90;2329.60;;;;;;5074642;28;20451;-87
2021/05/14 01:59:52;;;;;;;7.50;2.75;;;358.90;2329.60;;;;;;5075505;28;20025;-86
2021/05/14 02:02:18;;;;;;;3.97;2.10;;;358.80;2329.60;;;;;;5060427;28;20024;-87
2021/05/14 02:04:51;;;;;;;6.45;2.38;;;358.80;2329.60;;;;;;5097019;28;20078;-86
2021/05/14 02:07:20;;;;;;;8.48;2.78;;;358.80;2329.60;;;;;;5071664;28;20029;-85
2021/05/14 02:09:51;;;;;;;4.53;1.95;;;358.80;2329.60;;;;;;5101763;28;20050;-86
2021/05/14 02:12:18;;;;;;;4.35;1.70;;;358.90;2329.60;;;;;;5092167;28;20070;-86
2021/05/14 02:14:44;;;;;;;4.55;1.70;;;358.90;2329.60;;;;;;5078578;28;20028;-87
2021/05/14 02:17:10;;;;;;;3.42;1.30;;;358.90;2329.60;;;;;;5078368;28;20024;-86
2021/05/14 02:19:39;;;;;;;4.40;1.25;;;358.90;2329.60;;;;;;5078686;28;20023;-87
2021/05/14 02:22:05;;;;;;;4.30;1.35;;;359.00;2329.60;;;;;;5095965;28;20024;-87
2021/05/14 02:24:32;;;;;;;5.28;1.77;;;359.10;2329.60;;;;;;5077930;28;20070;-87
2021/05/14 02:26:58;;;;;;;5.18;2.30;;;359.10;2329.60;;;;;;5078378;28;20039;-87
2021/05/14 02:29:24;;;;;;;4.15;2.28;;;359.10;2329.60;;;;;;5077902;28;20024;-87
2021/05/14 02:31:50;;;;;;;4.18;2.20;;;359.10;2329.60;;;;;;5061535;28;20060;-88
2021/05/14 02:34:17;;;;;;;4.10;2.20;;;359.10;2329.60;;;;;;5077485;28;20538;-87
2021/05/14 02:36:43;;;;;;;6.88;1.98;;;359.20;2329.60;;;;;;5060966;28;20034;-87
2021/05/14 02:39:15;;;;;;;6.72;1.77;;;359.10;2329.60;;;;;;5096004;28;20102;-88
2021/05/14 02:41:47;;;;;;;5.47;1.70;;;359.00;2329.60;;;;;;5077566;28;20028;-86
2021/05/14 02:44:13;;;;;;;5.87;2.20;;;359.00;2329.60;;;;;;5077704;28;20028;-86
2021/05/14 02:46:41;;;;;;;3.67;1.92;;;358.90;2329.60;;;;;;5077357;28;20051;-87
2021/05/14 02:49:07;;;;;;;6.07;1.92;;;358.70;2329.60;;;;;;5077286;28;20050;-88
2021/05/14 02:51:33;;;;;;;6.38;2.08;;;358.80;2329.60;;;;;;5077455;28;20023;-88
2021/05/14 02:53:59;;;;;;;6.63;2.00;;;358.90;2329.60;;;;;;5077480;28;20024;-86
2021/05/14 02:56:27;;;;;;;4.13;2.10;;;358.80;2329.60;;;;;;5077315;28;20020;-85
2021/05/14 02:58:54;;;;;;;8.05;2.55;;;358.80;2329.60;;;;;;5077341;28;20036;-86
2021/05/14 03:01:24;;;;;;;10.82;2.08;;;358.70;2329.60;;;;;;5060759;28;20032;-87
2021/05/14 03:03:50;;;;;;;9.95;3.33;;;358.80;2329.60;;;;;;5072370;28;20048;-87
2021/05/14 03:06:18;;;;;;;9.88;2.15;;;359.10;2329.60;;;;;;5074509;28;20036;-86
2021/05/14 03:08:44;;;;;;;7.72;3.17;;;358.90;2329.60;;;;;;5078173;28;20077;-85
2021/05/14 03:11:13;;;;;;;3.88;2.28;;;359.00;2329.60;;;;;;5082120;28;20070;-88
2021/05/14 03:13:39;;;;;;;6.53;2.67;;;359.00;2329.60;;;;;;5073770;28;20190;-87
2021/05/14 03:16:06;;;;;;;10.23;2.38;;;359.00;2329.60;;;;;;5073844;28;20462;-86
2021/05/14 03:18:35;;;;;;;7.25;2.13;;;359.10;2329.60;;;;;;5073430;28;20386;-86
2021/05/14 03:21:01;;;;;;;9.02;2.15;;;359.20;2329.60;;;;;;5073922;28;20128;-87
2021/05/14 03:23:27;;;;;;;5.47;2.17;;;359.10;2329.60;;;;;;5074175;28;20025;-87
2021/05/14 03:25:53;;;;;;;5.03;2.28;;;358.90;2329.60;;;;;;5073901;28;20070;-87
2021/05/14 03:28:19;;;;;;;6.68;2.58;;;358.80;2329.60;;;;;;5073963;28;20040;-86
2021/05/14 03:30:45;;;;;;;4.82;2.70;;;358.90;2329.60;;;;;;5073310;28;20031;-87
2021/05/14 03:33:16;;;;;;;5.95;2.40;;;358.80;2329.60;;;;;;5073304;28;20029;-86
2021/05/14 03:35:53;;;;;;;6.10;3.28;;;358.90;2329.60;;;;;;5073268;28;20071;-88
2021/05/14 03:38:37;;;;;;;7.13;3.13;;;358.90;2329.60;;;;;;5073274;28;20020;-86
2021/05/14 03:41:18;;;;;;;9.50;2.55;;;358.90;2329.60;;;;;;5073355;28;20027;-87
2021/05/14 03:43:56;;;;;;;9.60;2.33;;;358.80;2329.60;;;;;;5073284;28;20020;-89
2021/05/14 03:46:22;;;;;;;5.82;2.28;;;358.50;2329.60;;;;;;5073591;28;20090;-85
2021/05/14 03:49:11;;;;;;;6.00;2.30;;;333.40;2329.60;;;;;;5074603;28;20027;-86
2021/05/14 03:52:12;;;;;;;6.93;2.67;;;358.70;2329.60;;;;;;5073965;28;20024;-87
2021/05/14 03:55:00;;;;;;;6.78;2.40;;;358.80;2329.60;;;;;;5075189;28;20498;-87
2021/05/14 03:57:27;;;;;;;11.95;3.22;;;358.80;2329.60;;;;;;5076890;28;20115;-88
2021/05/14 03:59:53;;;;;;;7.50;3.75;;;358.80;2329.60;;;;;;5079201;28;20027;-87
2021/05/14 04:02:22;;;;;;;6.25;3.42;;;358.80;2329.60;;;;;;5078630;28;20366;-86
2021/05/14 04:04:48;;;;;;;8.68;3.10;;;359.00;2329.60;;;;;;5089743;28;20036;-87
2021/05/14 04:07:14;;;;;;;6.47;2.75;;;359.00;2329.60;;;;;;5085301;28;20423;-87
2021/05/14 04:09:48;;;;;;;7.13;2.28;;;359.10;2329.60;;;;;;5080748;28;20027;-87
2021/05/14 04:14:58;;;;;;;7.40;3.65;;;359.00;2329.60;;;;;;5116027;28;20030;-85
2021/05/14 04:17:27;;;;;;;7.80;3.25;;;359.10;2329.60;;;;;;5095362;28;20048;-85
2021/05/14 04:19:53;;;;;;;8.40;3.20;;;359.10;2329.60;;;;;;5087584;28;20377;-86
2021/05/14 04:22:19;;;;;;;7.20;3.50;;;359.10;2329.60;;;;;;5085442;28;20039;-88
2021/05/14 04:24:45;;;;;;;10.32;6.50;;;359.20;2329.60;;;;;;5094323;28;20027;-86
2021/05/14 04:27:14;;;;;;;9.40;3.75;;;359.20;2329.60;;;;;;5094675;28;20032;-87
2021/05/14 04:29:39;;;;;;;6.03;3.03;;;359.30;2329.60;;;;;;5078750;28;20049;-85
2021/05/14 04:32:06;;;;;;;6.05;2.30;;;384.00;2329.60;;;;;;5076095;28;20115;-86
2021/05/14 04:34:31;;;;;;;6.88;3.05;;;384.00;2329.60;;;;;;5075944;28;20032;-86
2021/05/14 04:36:57;;;;;;;7.40;2.92;;;384.00;2329.60;;;;;;5075805;28;20024;-86
2021/05/14 04:39:24;;;;;;;7.38;2.92;;;384.10;2329.60;;;;;;5075700;28;20016;-86
2021/05/14 04:41:49;;;;;;;5.35;2.55;;;384.00;2329.60;;;;;;5075465;28;20073;-86
2021/05/14 04:44:16;;;;;;;8.27;2.60;;;384.10;2329.60;;;;;;5076431;28;20032;-86
2021/05/14 04:46:42;;;;;;;6.40;2.22;;;359.00;2329.60;;;;;;5075868;28;20032;-85
2021/05/14 04:49:08;;;;;;;10.52;3.75;;;384.10;2329.60;;;;;;5075768;28;20078;-86
2021/05/14 04:51:34;;;;;;;13.45;3.97;;;384.10;2329.60;;;;;;5093953;28;20473;-86
2021/05/14 04:54:01;;;;;;;18.02;4.90;;;359.20;2329.60;;;;;;5078482;28;20033;-84
2021/05/14 04:56:27;;;;;;;12.60;3.75;;;359.30;2329.60;;;;;;5078980;28;20031;-84
2021/05/14 04:58:52;;;;;;;9.73;3.60;;;384.00;2329.60;;;;;;5077110;28;20035;-87
2021/05/14 05:01:18;;;;;;;9.48;4.22;;;384.00;2329.60;;;;;;5075895;28;20377;-84
2021/05/14 05:03:49;;;;;;;8.38;4.15;;;384.10;2329.60;;;;;;5076551;28;20461;-86
2021/05/14 05:06:16;;;;;;;12.15;4.53;;;384.10;2329.60;;;;;;5078149;28;20483;-85
2021/05/14 05:08:42;;;;;;;12.73;4.57;;;359.20;2329.60;;;;;;5080163;28;20031;-85
2021/05/14 05:11:08;;;;;;;9.45;4.30;;;359.20;2329.60;;;;;;5077055;28;20024;-86
2021/05/14 05:13:34;;;;;;;8.55;4.65;;;359.20;2329.60;;;;;;5075709;28;20031;-85
2021/05/14 05:16:00;;;;;;;13.27;4.80;;;384.00;2329.60;;;;;;5075616;28;20031;-86
2021/05/14 05:18:26;;;;;;;9.25;4.45;;;384.00;2329.60;;;;;;5075927;28;20056;-87
2021/05/14 05:20:52;;;;;;;9.35;5.13;;;384.10;2329.60;;;;;;5076381;28;20033;-88
2021/05/14 05:23:17;;;;;;;11.15;6.15;;;384.20;2329.60;;;;;;5075518;28;20484;-86
2021/05/14 05:25:43;;;;;;;18.38;7.47;;;384.30;2329.60;;;;;;5075972;28;20073;-86
2021/05/14 05:28:09;;;;;;;12.45;7.05;;;384.30;2329.60;;;;;;5082356;28;20115;-84
2021/05/14 05:30:35;;;;;;;16.13;5.80;;;384.30;2329.60;;;;;;5091647;28;20021;-83
2021/05/14 05:33:01;;;;;;;9.65;5.93;;;384.40;2329.60;;;;;;5089945;28;20031;-85
2021/05/14 05:35:27;;;;;;;8.02;3.72;;;384.70;2329.60;;;;;;5079474;28;20023;-86
2021/05/14 05:37:54;;;;;;;9.68;4.50;;;384.60;2329.60;;;;;;5079602;28;20377;-86
2021/05/14 05:40:20;;;;;;;11.77;5.32;;;384.60;2329.60;;;;;;5080851;28;20024;-86
2021/05/14 05:42:47;;;;;;;10.98;3.33;;;384.30;2329.60;;;;;;5078599;28;20448;-87
2021/05/14 05:45:13;;;;;;;7.57;3.05;;;384.40;2329.60;;;;;;5078372;28;20107;-87
2021/05/14 05:47:39;;;;;;;10.48;3.78;;;384.40;2329.60;;;;;;5078935;28;20028;-88
2021/05/14 05:50:06;;;;;;;13.98;3.50;;;384.40;2329.60;;;;;;5079038;28;20412;-85
2021/05/14 05:52:33;;;;;;;8.32;3.00;;;384.40;2329.60;;;;;;5078377;28;20047;-89
2021/05/14 05:54:59;;;;;;;6.32;2.78;;;384.50;2329.60;;;;;;5078452;28;20496;-88
2021/05/14 05:57:25;;;;;;;6.18;3.22;;;384.70;2329.60;;;;;;5078295;28;20023;-86
2021/05/14 05:59:51;;;;;;;5.20;2.78;;;384.60;2329.60;;;;;;5078632;28;20027;-87
2021/05/14 06:02:17;;;;;;;5.70;2.90;;;384.50;2329.60;;;;;;5097025;28;20363;-86
2021/05/14 06:04:43;;;;;;;7.70;3.05;;;384.60;2329.60;;;;;;5078941;28;20461;-86
2021/05/14 06:07:09;;;;;;;7.28;2.88;;;384.70;2329.60;;;;;;5078441;28;20173;-84
2021/05/14 06:09:34;;;;;;;7.53;4.03;;;384.70;2329.60;;;;;;5078057;28;20466;-85
2021/05/14 06:12:00;;;;;;;11.63;3.85;;;384.70;2329.60;;;;;;5078405;28;20028;-85
2021/05/14 06:14:27;;;;;;;9.23;2.83;;;384.70;2329.60;;;;;;5078485;28;20098;-87
2021/05/14 06:16:52;;;;;;;7.72;2.88;;;384.40;2329.60;;;;;;5078491;28;20123;-85
2021/05/14 06:19:45;;;;;;;11.68;5.78;;;384.60;2329.60;;;;;;5078500;28;20112;-85
2021/05/14 06:22:04;;;;;;;11.10;4.88;;;384.60;2329.60;;;;;;5096348;28;20532;-84
2021/05/14 06:24:30;;;;;;;8.25;4.28;;;384.60;2329.60;;;;;;5078580;28;20032;-86
2021/05/14 06:26:56;;;;;;;14.75;3.88;;;384.60;2329.60;;;;;;5078184;28;20032;-87
2021/05/14 06:29:22;;;;;;;10.60;4.10;;;384.70;2329.60;;;;;;5078690;28;20024;-88
2021/05/14 06:31:48;;;;;;;17.42;5.18;;;384.70;2329.60;;;;;;5078676;28;20466;-86
2021/05/14 06:34:13;;;;;;;10.85;7.05;;;384.80;2329.60;;;;;;5078041;28;20116;-86
2021/05/14 06:36:39;;;;;;;16.73;7.07;;;409.60;2355.20;;;;;;5077926;28;20039;-86
2021/05/14 06:39:05;;;;;;;8.55;5.95;;;409.60;2355.20;;;;;;5078410;28;20024;-86
2021/05/14 06:41:31;;;;;;;9.77;4.72;;;409.60;2355.20;;;;;;5078546;28;20024;-87
2021/05/14 06:43:58;;;;;;;9.48;5.95;;;409.60;2355.20;;;;;;5078326;28;20481;-86
2021/05/14 06:46:24;;;;;;;9.25;5.35;;;409.70;2355.20;;;;;;5077911;28;20481;-86
2021/05/14 06:48:50;;;;;;;9.02;4.97;;;409.70;2355.20;;;;;;5078012;28;20174;-87
2021/05/14 06:51:17;;;;;;;7.72;4.80;;;409.70;2355.20;;;;;;5077936;28;20051;-85
2021/05/14 06:53:43;;;;;;;10.38;5.10;;;409.80;2355.20;;;;;;5078045;28;20028;-85
2021/05/14 06:56:09;;;;;;;8.15;4.95;;;410.30;2355.20;;;;;;5077411;28;20472;-88
2021/05/14 06:58:35;;;;;;;6.55;3.83;;;409.90;2355.20;;;;;;5077646;28;20488;-86
2021/05/14 07:01:01;;;;;;;9.38;3.95;;;409.90;2355.20;;;;;;5077793;28;20024;-88
2021/05/14 07:03:27;;;;;;;6.03;3.53;;;410.00;2355.20;;;;;;5077338;28;20044;-88
2021/05/14 07:05:53;;;;;;;6.95;3.38;;;410.00;2355.20;;;;;;5077868;28;20028;-87
2021/05/14 07:08:19;;;;;;;6.65;3.40;;;410.20;2355.20;;;;;;5078703;28;20393;-86
2021/05/14 07:10:45;;;;;;;6.70;2.72;;;410.30;2355.20;;;;;;5078161;28;20027;-86
2021/05/14 07:13:10;;;;;;;6.93;3.50;;;410.50;2355.20;;;;;;5077630;28;20050;-88
2021/05/14 07:15:36;;;;;;;5.88;2.40;;;435.30;2355.20;;;;;;5077605;28;20027;-88
2021/05/14 07:18:02;;;;;;;6.53;2.70;;;435.60;2355.20;;;;;;5077923;28;20035;-88
2021/05/14 07:20:28;;;;;;;9.98;3.60;;;435.80;2355.20;;;;;;5077427;28;20434;-89
2021/05/14 07:22:54;;;;;;;7.95;3.63;;;435.90;2355.20;;;;;;5077313;28;20042;-86
2021/05/14 07:25:20;;;;;;;7.78;3.88;;;436.00;2355.20;;;;;;5077963;28;20032;-83
2021/05/14 07:27:46;;;;;;;5.93;2.47;;;436.00;2355.20;;;;;;5076928;28;20028;-88
2021/05/14 07:30:13;;;;;;;5.25;1.92;;;436.10;2355.20;;;;;;5077038;28;20028;-85
2021/05/14 07:32:40;;;;;;;5.55;1.73;;;436.10;2355.20;;;;;;5076990;28;20366;-86
2021/05/14 07:35:06;;;;;;;6.68;2.92;;;436.10;2355.20;;;;;;5077063;28;20456;-85
2021/05/14 07:37:32;;;;;;;11.27;3.25;;;460.90;2380.80;;;;;;5076964;28;20032;-84
2021/05/14 07:39:58;;;;;;;6.18;2.53;;;461.40;2380.80;;;;;;5077112;28;20362;-89
2021/05/14 07:42:24;;;;;;;5.72;2.70;;;461.60;2380.80;;;;;;5077328;28;20024;-86
2021/05/14 07:44:50;;;;;;;8.80;3.28;;;461.70;2380.80;;;;;;5078279;28;20024;-86
2021/05/14 07:47:16;;;;;;;7.45;2.78;;;486.60;2380.80;;;;;;5078278;28;20032;-86
2021/05/14 07:49:42;;;;;;;6.07;3.08;;;486.80;2380.80;;;;;;5075973;28;20372;-84
2021/05/14 07:52:09;;;;;;;15.52;7.70;;;487.00;2380.80;;;;;;5077333;28;20095;-88
2021/05/14 07:54:35;;;;;;;9.40;4.97;;;487.10;2380.80;;;;;;5076763;28;20024;-87
2021/05/14 07:57:01;;;;;;;10.00;4.55;;;487.30;2380.80;;;;;;5076942;28;20024;-84
2021/05/14 07:59:27;;;;;;;8.48;2.40;;;512.10;2380.80;;;;;;5076853;28;20715;-87
2021/05/14 08:01:53;;;;;;;5.28;2.38;;;512.50;2380.80;;;;;;5076821;28;20024;-86
2021/05/14 08:04:19;;;;;;;5.75;2.67;;;512.40;2380.80;;;;;;5077878;28;20051;-83
2021/05/14 08:06:45;;;;;;;3.65;1.65;;;537.80;2406.40;;;;;;5076736;28;20039;-84
2021/05/14 08:09:16;;;;;;;11.90;6.35;;;512.70;2380.80;;;;;;5076610;28;20024;-87
2021/05/14 08:11:42;;;;;;;5.15;3.05;;;512.70;2380.80;;;;;;5076710;28;20027;-85
2021/05/14 08:14:08;;;;;;;8.50;2.58;;;512.80;2380.80;;;;;;5076691;28;20032;-84
2021/05/14 08:16:34;;;;;;;6.47;1.92;;;512.90;2329.60;;;;;;5076666;28;20115;-85
2021/05/14 08:18:59;;;;;;;6.85;2.50;;;512.80;2304.00;;;;;;5076212;28;20028;-83
2021/05/14 08:21:25;;;;;;;6.43;2.50;;;512.80;2278.40;;;;;;5076596;28;20024;-84
2021/05/14 08:23:53;;;;;;;10.90;2.63;;;512.30;2304.00;;;;;;5076381;28;20016;-84
2021/05/14 08:26:19;;;;;;;8.48;3.00;;;512.30;2355.20;;;;;;5077357;28;20469;-85
2021/05/14 08:28:45;;;;;;;8.15;2.42;;;512.40;2380.80;;;;;;5078950;28;20119;-87
2021/05/14 08:31:12;;;;;;;6.70;3.40;;;512.30;2329.60;;;;;;5077881;28;20031;-85
2021/05/14 08:33:38;;;;;;;10.95;5.40;;;512.50;2329.60;;;;;;5077724;28;20031;-85
2021/05/14 08:36:05;;;;;;;6.50;3.85;;;512.40;2252.80;;;;;;5076946;28;20064;-83
2021/05/14 08:38:32;;;;;;;10.10;2.90;;;512.10;2227.20;;;;;;5076331;28;20024;-81
2021/05/14 08:41:12;;;;;;;8.18;1.90;;;512.10;2227.20;;;;;;5093845;28;20021;-85
2021/05/14 08:43:38;;;;;;;9.40;2.33;;;512.00;2176.00;;;;;;5076378;28;20035;-84
2021/05/14 08:46:04;;;;;;;6.50;2.35;;;512.00;2201.60;;;;;;5075689;28;20028;-85
2021/05/14 08:48:38;;;;;;;8.27;2.13;;;512.10;2099.20;;;;;;5076520;28;20424;-84
2021/05/14 08:51:09;;;;;;;7.68;2.15;;;512.20;2048.00;;;;;;5098995;28;20051;-83
2021/05/14 08:53:35;;;;;;;7.00;2.88;;;512.10;2022.40;;;;;;5097723;28;20031;-83
2021/05/14 08:56:01;;;;;;;7.47;2.25;;;512.00;1996.80;;;;;;5078569;28;20031;-87
2021/05/14 08:58:27;;;;;;;6.65;2.65;;;512.00;1971.20;;;;;;5077974;28;20052;-86
2021/05/14 09:00:53;;;;;;;9.82;1.90;;;512.00;1996.80;;;;;;5080176;28;20114;-86
2021/05/14 09:03:20;;;;;;;9.25;2.08;;;487.30;1945.60;;;;;;5099153;28;20060;-82
2021/05/14 09:05:47;;;;;;;8.45;2.15;;;512.00;1920.00;;;;;;5095789;28;20055;-82
2021/05/14 09:08:31;;;;;;;10.02;3.13;;;512.10;1945.60;;;;;;5091427;28;20032;-83
2021/05/14 09:10:58;;;;;;;8.65;1.85;;;512.20;1920.00;;;;;;5092990;28;20107;-83
2021/05/14 09:13:39;;;;;;;4.70;1.65;;;512.10;1920.00;;;;;;5094306;28;20373;-82
2021/05/14 09:16:05;;;;;;;4.85;2.20;;;512.10;1920.00;;;;;;5108227;28;20028;-86
2021/05/14 09:18:31;;;;;;;5.25;3.17;;;512.10;1868.80;;;;;;5097558;28;20016;-84
2021/05/14 09:20:59;;;;;;;6.68;2.63;;;512.10;1894.40;;;;;;5081271;28;20024;-83
2021/05/14 09:23:36;;;;;;;8.70;5.40;;;512.20;1817.60;;;;;;5079043;28;20470;-83
2021/05/14 09:26:06;;;;;;;9.43;3.55;;;512.70;1817.60;;;;;;5079712;28;20086;-80
2021/05/14 09:28:38;;;;;;;10.48;4.35;;;537.90;1817.60;;;;;;5078820;28;20036;-83
2021/05/14 09:31:14;;;;;;;6.43;2.88;;;537.90;1817.60;;;;;;5079257;28;20020;-84
2021/05/14 09:33:51;;;;;;;8.15;2.80;;;538.10;1715.20;;;;;;5079239;28;20035;-86
2021/05/14 09:36:25;;;;;;;9.85;2.10;;;538.20;1664.00;;;;;;5079094;28;20028;-84
2021/05/14 09:39:06;;;;;;;4.47;1.55;;;563.20;1664.00;;;;;;5071260;28;20077;-89
2021/05/14 09:41:50;;;;;;;7.50;1.38;;;563.40;1638.40;;;;;;5079781;28;20025;-86
2021/05/14 09:44:20;;;;;;;6.63;1.45;;;563.70;1612.80;;;;;;5079363;28;20111;-85
2021/05/14 09:46:54;;;;;;;3.47;1.17;;;563.70;1612.80;;;;;;5079208;28;20032;-85
2021/05/14 09:49:23;;;;;;;3.78;1.40;;;563.70;1484.80;;;;;;5079052;28;20399;-87
2021/05/14 09:52:00;;;;;;;5.55;1.88;;;563.90;1484.80;;;;;;5079232;28;20024;-86
2021/05/14 09:54:29;;;;;;;3.88;1.60;;;588.90;1484.80;;;;;;5080028;28;20464;-86
2021/05/14 09:57:30;;;;;;;3.75;1.58;;;589.20;1459.20;;;;;;5078994;28;20024;-85
2021/05/14 09:59:59;;;;;;;4.28;1.70;;;589.50;1484.80;;;;;;5079178;28;20047;-84
2021/05/14 10:02:30;;;;;;;6.35;1.42;;;589.70;1433.60;;;;;;5096681;28;20031;-84
2021/05/14 10:04:57;;;;;;;7.77;3.60;;;589.70;1408.00;;;;;;5079051;28;20054;-84
2021/05/14 10:07:28;;;;;;;4.47;1.30;;;614.60;1408.00;;;;;;5096608;28;20043;-84
2021/05/14 10:10:06;;;;;;;5.90;1.63;;;614.60;1382.40;;;;;;5078939;28;20028;-84
2021/05/14 10:12:32;;;;;;;5.47;2.58;;;589.30;1408.00;;;;;;5077794;28;20067;-85
2021/05/14 10:15:01;;;;;;;3.03;1.20;;;589.00;1459.20;;;;;;5078969;28;20032;-84
2021/05/14 10:17:27;;;;;;;6.82;4.07;;;589.10;1459.20;;;;;;5078503;28;20374;-82
2021/05/14 10:19:55;;;;;;;3.72;1.40;;;589.50;1484.80;;;;;;5077005;28;20020;-82
2021/05/14 10:22:25;;;;;;;3.95;1.58;;;589.60;1408.00;;;;;;5072635;28;20123;-84
2021/05/14 10:24:52;;;;;;;4.35;1.80;;;614.70;1356.80;;;;;;5077268;28;20119;-84
2021/05/14 10:27:21;;;;;;;4.13;1.60;;;589.60;1356.80;;;;;;5077562;28;20088;-82
2021/05/14 10:29:53;;;;;;;3.63;1.65;;;589.10;1408.00;;;;;;5093862;28;20081;-83
2021/05/14 10:32:43;;;;;;;5.32;2.17;;;589.00;1459.20;;;;;;5077022;28;20024;-83
2021/05/14 10:35:15;;;;;;;3.88;1.58;;;589.00;1433.60;;;;;;5077700;28;20481;-84
2021/05/14 10:37:52;;;;;;;6.68;2.28;;;589.20;1433.60;;;;;;5077629;28;20059;-83
2021/05/14 10:40:33;;;;;;;9.32;1.70;;;589.60;1382.40;;;;;;5077488;28;20024;-84
2021/05/14 10:43:06;;;;;;;7.40;1.73;;;589.60;1408.00;;;;;;5076730;28;20515;-83
2021/05/14 10:45:44;;;;;;;4.30;1.70;;;589.70;1356.80;;;;;;5077247;28;20032;-83
2021/05/14 10:48:18;;;;;;;4.80;1.50;;;589.50;1408.00;;;;;;5077149;28;20131;-83
2021/05/14 10:50:53;;;;;;;5.00;1.60;;;589.70;1356.80;;;;;;5077190;28;20059;-83
2021/05/14 10:53:42;;;;;;;3.72;1.38;;;589.70;1356.80;;;;;;5077337;28;20081;-83
2021/05/14 10:56:11;;;;;;;5.70;1.50;;;589.60;1356.80;;;;;;5073254;28;20067;-82
2021/05/14 10:58:48;;;;;;;3.67;1.33;;;614.40;1382.40;;;;;;5077566;28;20047;-82
2021/05/14 11:01:34;;;;;;;4.07;1.80;;;614.50;1356.80;;;;;;5077072;28;20024;-83
2021/05/14 11:04:02;;;;;;;5.15;1.60;;;589.70;1382.40;;;;;;5076952;28;20065;-81
2021/05/14 11:06:47;;;;;;;5.28;1.65;;;589.40;1408.00;;;;;;5077436;28;20047;-84
2021/05/14 11:09:14;;;;;;;3.90;1.77;;;589.00;1459.20;;;;;;5077383;28;20086;-82
2021/05/14 11:12:03;;;;;;;5.10;1.80;;;563.70;1510.40;;;;;;5095713;28;20028;-85
2021/05/14 11:14:45;;;;;;;5.05;1.33;;;563.40;1561.60;;;;;;5095567;28;20024;-84
2021/05/14 11:17:14;;;;;;;3.67;1.10;;;563.20;1587.20;;;;;;5077644;28;20035;-83
2021/05/14 11:19:49;;;;;;;3.60;1.10;;;538.20;1561.60;;;;;;5077417;28;20024;-84
2021/05/14 11:22:22;;;;;;;3.03;1.20;;;538.00;1587.20;;;;;;5077539;28;20119;-85
2021/05/14 11:25:13;;;;;;;2.85;1.50;;;538.00;1587.20;;;;;;5076637;28;20028;-85
2021/05/14 11:27:39;;;;;;;2.28;1.00;;;537.90;1612.80;;;;;;5095513;28;20032;-85
2021/05/14 11:30:09;;;;;;;3.72;1.48;;;537.80;1587.20;;;;;;5076999;28;20381;-85
2021/05/14 11:32:42;;;;;;;5.13;1.60;;;537.80;1612.80;;;;;;5092865;28;20469;-85
2021/05/14 11:35:15;;;;;;;4.07;1.27;;;537.80;1561.60;;;;;;5095600;28;20020;-84
2021/05/14 11:37:53;;;;;;;2.85;0.90;;;538.00;1561.60;;;;;;5077617;28;20050;-85
2021/05/14 11:40:21;;;;;;;2.63;1.15;;;537.60;1561.60;;;;;;5077527;28;20021;-85
2021/05/14 11:42:50;;;;;;;3.63;1.45;;;512.80;1612.80;;;;;;5076866;28;20362;-84
2021/05/14 11:45:21;;;;;;;3.15;1.25;;;512.50;1689.60;;;;;;5076952;28;20059;-84
2021/05/14 11:47:50;;;;;;;2.77;1.13;;;512.40;1740.80;;;;;;5077693;28;20048;-84
2021/05/14 11:50:31;;;;;;;3.72;1.63;;;512.30;1766.40;;;;;;5079022;28;20035;-85
2021/05/14 11:52:58;;;;;;;4.13;1.25;;;512.30;1792.00;;;;;;5077695;28;20052;-85
2021/05/14 11:55:25;;;;;;;4.07;1.85;;;512.20;1740.80;;;;;;5077377;28;20063;-84
2021/05/14 11:57:56;;;;;;;3.80;1.58;;;512.50;1740.80;;;;;;5076525;28;20058;-85
2021/05/14 12:00:34;;;;;;;6.18;2.00;;;512.50;1715.20;;;;;;5077171;28;20537;-86
2021/05/14 12:03:06;;;;;;;5.03;2.03;;;537.60;1740.80;;;;;;5077397;28;20048;-84
2021/05/14 12:05:32;;;;;;;7.68;2.35;;;563.20;1740.80;;;;;;5095628;28;20084;-84
2021/05/14 12:08:18;;;;;;;5.57;1.60;;;563.60;1715.20;;;;;;5078689;28;20039;-85
2021/05/14 12:10:51;;;;;;;3.20;1.50;;;563.60;1689.60;;;;;;5089065;28;20047;-82
2021/05/14 12:13:25;;;;;;;3.40;1.30;;;563.20;1740.80;;;;;;5097033;28;20021;-83
2021/05/14 12:16:05;;;;;;;4.53;2.30;;;538.50;1766.40;;;;;;5088615;28;20039;-86
2021/05/14 12:18:39;;;;;;;4.18;1.20;;;538.30;1817.60;;;;;;5078980;28;20039;-82
2021/05/14 12:21:11;;;;;;;5.70;1.52;;;538.20;1868.80;;;;;;5077400;28;20031;-83
2021/05/14 12:23:37;;;;;;;4.65;1.95;;;538.00;1817.60;;;;;;5076381;28;20047;-83
2021/05/14 12:26:06;;;;;;;5.00;1.55;;;537.90;1792.00;;;;;;5094617;28;20446;-84
2021/05/14 12:28:49;;;;;;;14.75;3.85;;;537.90;1792.00;;;;;;5076873;28;20458;-84
2021/05/14 12:31:27;;;;;;;20.10;3.38;;;537.60;2201.60;;;;;;5077346;28;20438;-84
2021/05/14 12:34:02;;;;;;;7.30;2.30;;;537.60;2406.40;;;;;;5076255;28;20083;-83
2021/05/14 12:36:30;;;;;;;6.97;2.00;;;512.80;2201.60;;;;;;5079406;28;20074;-81
2021/05/14 12:39:07;;;;;;;7.28;3.53;;;512.70;2099.20;;;;;;5080470;28;20023;-82
2021/05/14 12:41:38;;;;;;;9.65;4.72;;;512.60;2073.60;;;;;;5079077;28;20465;-81
2021/05/14 12:44:17;;;;;;;9.18;4.30;;;512.60;1971.20;;;;;;5079959;28;20470;-82
2021/05/14 12:47:14;;;;;;;9.05;3.95;;;512.80;1920.00;;;;;;5079632;28;20077;-81
2021/05/14 12:49:44;;;;;;;9.63;3.67;;;512.90;1920.00;;;;;;5097968;28;20081;-81